Time;durP1;ratioP1;P1;durP2;ratioP2;P2;SDS_P1;SDS_P2;PMS_P1;PMS_P2;Temp;Humidity;BMP_temperature;BMP_pressure;BME280_temperature;BME280_humidity;BME280_pressure;Samples;Min_cycle;Max_cycle;Signal;HPM_P1;HPM_P2
2022/04/07 05:32:50;;;;;;;;;;;;;;;9.57;79.06;95958.25;4230253;27;10403;-61
2022/04/07 05:34:52;;;;;;;;;;;;;;;9.60;79.59;95960.47;4210547;28;5664;-61
2022/04/07 05:36:53;;;;;;;;;;;;;;;9.60;79.99;95960.47;4213415;28;5749;-61
2022/04/07 05:38:55;;;;;;;;;;;;;;;9.58;80.42;95960.69;4212404;28;5736;-61
2022/04/07 05:40:57;;;;;;;;;;;;;;;9.56;80.67;95954.81;4211013;28;5824;-61
2022/04/07 05:43:01;;;;;;;;;;;;;;;9.49;80.90;95955.84;4212413;28;5712;-62
2022/04/07 05:45:04;;;;;;;;;;;;;;;9.40;81.72;95944.72;4213923;28;6597;-61
2022/04/07 05:47:06;;;;;;;;;;;;;;;9.37;82.07;95947.75;4213828;28;6525;-62
2022/04/07 05:49:10;;;;;;;;;;;;;;;9.36;82.19;95956.69;4213696;28;6480;-61
2022/04/07 05:51:12;;;;;;;;;;;;;;;9.34;82.55;95958.72;4213041;28;5735;-61
2022/04/07 05:53:13;;;;;;;;;;;;;;;9.30;82.47;95955.69;4213773;28;5755;-61
2022/04/07 05:55:15;;;;;;;;;;;;;;;9.23;83.50;95954.88;4214349;28;5655;-61
2022/04/07 05:57:17;;;;;;;;;;;;;;;9.27;82.72;95958.72;4213587;28;5860;-61
2022/04/07 05:59:18;;;;;;;;;;;;;;;9.18;83.38;95965.25;4214079;28;5749;-60
2022/04/07 06:01:20;;;;;;;;;;;;;;;9.12;83.95;95960.75;4211704;28;5697;-61
2022/04/07 06:03:22;;;;;;;;;;;;;;;9.05;84.65;95970.50;4213866;28;5689;-61
2022/04/07 06:05:25;;;;;;;;;;;;;;;9.03;85.17;95980.44;4212679;28;6389;-61
2022/04/07 06:07:26;;;;;;;;;;;;;;;8.99;85.82;95976.59;4209308;28;5925;-61
2022/04/07 06:09:29;;;;;;;;;;;;;;;8.90;85.99;95965.44;4206571;28;6519;-61
2022/04/07 06:11:31;;;;;;;;;;;;;;;8.94;86.71;95974.53;4213411;28;5702;-61
2022/04/07 06:13:34;;;;;;;;;;;;;;;8.98;86.13;95974.97;4213755;28;5697;-61
2022/04/07 06:15:36;;;;;;;;;;;;;;;8.96;86.53;95969.09;4213887;28;5760;-61
2022/04/07 06:17:45;;;;;;;;;;;;;;;8.90;88.16;95973.34;4213756;28;5788;-61
2022/04/07 06:19:47;;;;;;;;;;;;;;;8.90;87.30;95972.53;4213905;28;5784;-62
2022/04/07 06:21:49;;;;;;;;;;;;;;;8.87;87.46;95983.50;4213417;28;5708;-60
2022/04/07 06:23:51;;;;;;;;;;;;;;;8.90;87.62;95980.44;4212187;28;5709;-64
2022/04/07 06:25:53;;;;;;;;;;;;;;;8.89;87.85;95976.19;4212339;28;5693;-61
2022/04/07 06:27:56;;;;;;;;;;;;;;;8.90;87.84;95977.81;4213584;28;5701;-64
2022/04/07 06:29:58;;;;;;;;;;;;;;;8.91;88.38;95979.41;4212211;28;5791;-62
2022/04/07 06:32:02;;;;;;;;;;;;;;;8.90;88.38;95989.16;4211977;28;5748;-62
2022/04/07 06:34:05;;;;;;;;;;;;;;;8.94;88.51;95989.56;4201816;28;5706;-61
2022/04/07 06:36:09;;;;;;;;;;;;;;;8.94;88.38;95984.28;4202318;28;5101;-62
2022/04/07 06:38:11;;;;;;;;;;;;;;;8.97;88.55;95973.34;4200766;28;5781;-62
2022/04/07 06:40:12;;;;;;;;;;;;;;;9.00;88.51;95988.75;4202289;28;5760;-63
2022/04/07 06:42:15;;;;;;;;;;;;;;;9.00;88.56;95983.50;4202366;28;5694;-64
2022/04/07 06:44:19;;;;;;;;;;;;;;;8.98;88.54;95990.78;4201965;28;5760;-63
2022/04/07 06:46:20;;;;;;;;;;;;;;;9.01;88.66;95985.91;4202163;28;5702;-62
2022/04/07 06:48:22;;;;;;;;;;;;;;;9.09;88.05;96000.72;4202058;28;6484;-64
2022/04/07 06:50:25;;;;;;;;;;;;;;;9.08;87.90;95991.19;4202020;28;5705;-61
2022/04/07 06:52:27;;;;;;;;;;;;;;;9.12;88.03;96008.22;4201412;28;5917;-63
2022/04/07 06:54:29;;;;;;;;;;;;;;;9.14;87.63;96000.91;4202089;28;5702;-61
2022/04/07 06:56:30;;;;;;;;;;;;;;;9.17;86.71;95992.59;4202204;28;5105;-62
2022/04/07 06:58:32;;;;;;;;;;;;;;;9.20;86.25;95997.50;4201299;28;5717;-61
2022/04/07 07:00:40;;;;;;;;;;;;;;;9.26;86.32;95991.38;4202602;28;5698;-61
2022/04/07 07:02:44;;;;;;;;;;;;;;;9.23;87.32;95993.63;4202174;28;5714;-62
2022/04/07 07:04:46;;;;;;;;;;;;;;;9.27;86.46;95993.00;4202202;28;5698;-61
2022/04/07 07:06:48;;;;;;;;;;;;;;;9.31;85.45;95996.88;4201981;28;6387;-61
2022/04/07 07:08:50;;;;;;;;;;;;;;;9.41;85.26;95987.72;4200350;28;5841;-61
2022/04/07 07:10:52;;;;;;;;;;;;;;;9.36;85.76;95992.78;4198293;28;5704;-62
2022/04/07 07:12:54;;;;;;;;;;;;;;;9.43;85.03;95988.34;4199978;28;5693;-61
2022/04/07 07:14:56;;;;;;;;;;;;;;;9.49;85.02;95983.03;4196434;28;5706;-61
2022/04/07 07:16:58;;;;;;;;;;;;;;;9.46;85.55;95980.00;4201820;28;5780;-62
2022/04/07 07:19:01;;;;;;;;;;;;;;;9.45;85.50;95970.47;4185324;28;6416;-61
2022/04/07 07:21:02;;;;;;;;;;;;;;;9.49;84.87;95974.31;4191056;28;5796;-62
2022/04/07 07:23:05;;;;;;;;;;;;;;;9.39;85.37;95984.47;4201357;28;6338;-62
2022/04/07 07:25:08;;;;;;;;;;;;;;;9.51;84.61;95978.38;4201644;28;5752;-61
2022/04/07 07:27:10;;;;;;;;;;;;;;;9.51;83.59;95973.09;4201771;28;5709;-62
2022/04/07 07:29:12;;;;;;;;;;;;;;;9.48;83.55;95975.31;4201551;28;5717;-63
2022/04/07 07:31:13;;;;;;;;;;;;;;;9.43;83.96;95975.94;4201010;28;5825;-63
2022/04/07 07:33:15;;;;;;;;;;;;;;;9.37;83.84;95970.69;4201379;28;5689;-62
2022/04/07 07:35:18;;;;;;;;;;;;;;;9.32;83.70;95950.19;4201608;28;5761;-63
2022/04/07 07:37:20;;;;;;;;;;;;;;;9.31;84.05;95938.84;4200214;28;5722;-62
2022/04/07 07:39:21;;;;;;;;;;;;;;;9.37;83.25;95936.38;4200139;28;5734;-62
2022/04/07 07:41:24;;;;;;;;;;;;;;;9.37;83.04;95928.47;4201206;28;5682;-63
2022/04/07 07:43:25;;;;;;;;;;;;;;;9.38;82.93;95919.53;4200397;28;5859;-62
2022/04/07 07:45:30;;;;;;;;;;;;;;;9.37;83.40;95926.63;4200529;28;5852;-61
2022/04/07 07:47:53;;;;;;;;;;;;;;;9.38;83.67;95911.63;4201175;28;5701;-62
2022/04/07 07:49:56;;;;;;;;;;;;;;;9.49;83.54;95913.63;4201274;28;5816;-62
2022/04/07 07:51:57;;;;;;;;;;;;;;;9.38;81.60;95917.72;4199568;28;5871;-62
2022/04/07 07:53:59;;;;;;;;;;;;;;;9.39;82.11;95907.97;4201076;28;5741;-62
2022/04/07 07:56:01;;;;;;;;;;;;;;;9.28;82.55;95906.78;4201339;28;6403;-62
2022/04/07 07:58:03;;;;;;;;;;;;;;;9.44;82.79;95906.34;4199603;28;5705;-61
2022/04/07 08:00:07;;;;;;;;;;;;;;;9.57;81.80;95905.50;4200980;28;5691;-61
2022/04/07 08:02:10;;;;;;;;;;;;;;;9.70;81.92;95923.91;4201290;28;5713;-61
2022/04/07 08:04:16;;;;;;;;;;;;;;;9.69;81.84;95916.19;4201333;28;5697;-62
2022/04/07 08:06:17;;;;;;;;;;;;;;;9.63;82.87;95925.78;4199545;28;5852;-61
2022/04/07 08:08:19;;;;;;;;;;;;;;;9.55;83.09;95908.34;4199294;28;5776;-62
2022/04/07 08:10:22;;;;;;;;;;;;;;;9.69;82.66;95909.09;4200846;28;5698;-61
2022/04/07 08:12:24;;;;;;;;;;;;;;;9.67;82.89;95919.06;4200755;28;5757;-62
2022/04/07 08:14:26;;;;;;;;;;;;;;;9.59;83.56;95920.09;4200482;28;5817;-61
2022/04/07 08:16:31;;;;;;;;;;;;;;;9.61;84.07;95922.50;4200618;28;5713;-62
2022/04/07 08:18:33;;;;;;;;;;;;;;;9.67;83.31;95924.34;4199400;28;5681;-62
2022/04/07 08:20:35;;;;;;;;;;;;;;;9.61;83.76;95922.50;4182520;28;5719;-61
2022/04/07 08:22:37;;;;;;;;;;;;;;;9.50;85.04;95926.59;4185555;28;5889;-62
2022/04/07 08:24:39;;;;;;;;;;;;;;;9.56;84.47;95915.22;4184171;28;5715;-61
2022/04/07 08:26:40;;;;;;;;;;;;;;;9.54;84.82;95929.66;4182668;28;5734;-62
2022/04/07 08:28:42;;;;;;;;;;;;;;;9.50;85.58;95929.25;4184263;28;5738;-61
2022/04/07 08:30:45;;;;;;;;;;;;;;;9.42;86.22;95933.97;4182655;28;5718;-62
2022/04/07 08:32:46;;;;;;;;;;;;;;;9.42;85.82;95933.97;4183486;28;5813;-61
2022/04/07 08:34:48;;;;;;;;;;;;;;;9.32;86.49;95935.19;4198818;28;5781;-62
2022/04/07 08:36:50;;;;;;;;;;;;;;;9.30;87.08;95936.41;4200568;28;5847;-61
2022/04/07 08:38:52;;;;;;;;;;;;;;;9.25;87.56;95937.00;4200012;28;6356;-61
2022/04/07 08:40:55;;;;;;;;;;;;;;;9.19;88.50;95945.75;4200538;28;6336;-61
2022/04/07 08:42:57;;;;;;;;;;;;;;;9.19;88.74;95942.31;4200001;28;5777;-62
2022/04/07 08:44:59;;;;;;;;;;;;;;;9.19;88.64;95943.13;4200445;28;5701;-61
2022/04/07 08:47:01;;;;;;;;;;;;;;;9.10;89.77;95944.34;4200677;28;6453;-62
2022/04/07 08:49:05;;;;;;;;;;;;;;;9.17;89.31;95952.22;4200251;28;5816;-62
2022/04/07 08:51:08;;;;;;;;;;;;;;;9.19;89.53;95950.22;4198964;28;5667;-61
2022/04/07 08:53:13;;;;;;;;;;;;;;;9.16;90.59;95956.69;4199944;28;5794;-62
2022/04/07 08:55:15;;;;;;;;;;;;;;;9.12;90.41;95952.84;4200110;28;6355;-61
2022/04/07 08:57:16;;;;;;;;;;;;;;;9.23;89.60;95960.16;4200047;28;5718;-63
2022/04/07 08:59:18;;;;;;;;;;;;;;;9.15;90.88;95960.34;4198585;28;5694;-61
2022/04/07 09:01:20;;;;;;;;;;;;;;;9.22;89.79;95961.16;4200250;28;5796;-61
2022/04/07 09:03:23;;;;;;;;;;;;;;;9.25;90.87;95968.66;4198773;28;5706;-61
2022/04/07 09:05:26;;;;;;;;;;;;;;;9.02;92.07;95976.19;4199964;28;5774;-61
2022/04/07 09:07:32;;;;;;;;;;;;;;;9.21;90.83;95974.56;4200119;28;5745;-61
2022/04/07 09:09:38;;;;;;;;;;;;;;;9.21;90.95;95971.91;4200661;28;5706;-61
2022/04/07 09:11:40;;;;;;;;;;;;;;;9.10;92.25;95967.25;4199779;28;5713;-61
2022/04/07 09:13:45;;;;;;;;;;;;;;;9.16;92.00;95966.44;4198714;28;5696;-61
2022/04/07 09:15:48;;;;;;;;;;;;;;;9.26;91.02;95972.91;4200263;28;5693;-62
2022/04/07 09:17:54;;;;;;;;;;;;;;;9.23;90.74;95968.06;4200074;28;5693;-62
2022/04/07 09:19:55;;;;;;;;;;;;;;;9.29;90.00;95959.34;4200266;28;5705;-61
2022/04/07 09:22:30;;;;;;;;;;;;;;;9.25;90.08;95968.66;4190461;28;5853;-61
2022/04/07 09:24:36;;;;;;;;;;;;;;;9.27;90.07;95969.25;4183562;28;5754;-61
2022/04/07 09:26:42;;;;;;;;;;;;;;;9.27;90.29;95974.53;4183464;28;6643;-62
2022/04/07 09:28:45;;;;;;;;;;;;;;;9.17;90.71;95971.50;4183438;28;5738;-61
2022/04/07 09:30:49;;;;;;;;;;;;;;;9.18;90.19;95980.25;4182102;28;5803;-62
2022/04/07 09:32:51;;;;;;;;;;;;;;;9.05;91.84;95981.84;4183362;28;5795;-62
2022/04/07 09:34:58;;;;;;;;;;;;;;;9.05;91.58;95984.47;4198703;28;5674;-61
2022/04/07 09:37:07;;;;;;;;;;;;;;;9.08;91.24;95985.13;4200087;28;5760;-61
2022/04/07 09:39:09;;;;;;;;;;;;;;;9.15;91.13;95989.34;4199703;28;5697;-61
2022/04/07 09:41:12;;;;;;;;;;;;;;;9.27;89.87;95986.91;4198446;28;5686;-63
2022/04/07 09:43:14;;;;;;;;;;;;;;;9.26;90.07;95986.09;4200029;28;5839;-61
2022/04/07 09:45:21;;;;;;;;;;;;;;;9.14;90.96;95984.28;4200154;28;5693;-61
2022/04/07 09:47:24;;;;;;;;;;;;;;;9.23;90.07;95978.59;4199737;28;5686;-62
2022/04/07 09:49:26;;;;;;;;;;;;;;;9.18;91.16;95978.44;4198468;28;5701;-61
2022/04/07 09:51:28;;;;;;;;;;;;;;;9.27;89.71;95973.72;4199881;28;5824;-62
2022/04/07 09:53:38;;;;;;;;;;;;;;;9.29;89.92;95971.72;4197891;28;5682;-60
2022/04/07 09:55:41;;;;;;;;;;;;;;;9.24;90.15;95969.69;4199667;28;5758;-62
2022/04/07 09:57:43;;;;;;;;;;;;;;;9.36;89.89;95971.69;4199770;28;5714;-62
2022/04/07 09:59:45;;;;;;;;;;;;;;;9.33;89.77;95968.44;4198443;28;5698;-62
2022/04/07 10:01:50;;;;;;;;;;;;;;;9.33;89.84;95968.44;4198279;28;5902;-62
2022/04/07 10:03:53;;;;;;;;;;;;;;;9.20;90.12;95965.84;4199772;28;5693;-61
2022/04/07 10:05:55;;;;;;;;;;;;;;;9.27;91.04;95958.72;4199690;28;5768;-61
2022/04/07 10:07:58;;;;;;;;;;;;;;;9.39;89.90;95966.00;4200309;28;5801;-62
2022/04/07 10:10:01;;;;;;;;;;;;;;;9.41;90.79;95948.16;4202773;28;5725;-63
2022/04/07 10:12:06;;;;;;;;;;;;;;;9.37;90.76;95957.47;4201292;28;5685;-61
2022/04/07 10:14:10;;;;;;;;;;;;;;;9.46;89.60;95950.97;4202561;28;5709;-61
2022/04/07 10:16:18;;;;;;;;;;;;;;;9.46;89.38;95957.06;4203064;28;6558;-63
2022/04/07 10:18:28;;;;;;;;;;;;;;;9.47;88.73;95960.50;4202723;28;5709;-62
2022/04/07 10:20:35;;;;;;;;;;;;;;;9.18;90.45;95953.88;4202600;28;5692;-62
2022/04/07 10:22:45;;;;;;;;;;;;;;;9.26;90.14;95953.66;4187740;28;5731;-62
2022/04/07 10:24:49;;;;;;;;;;;;;;;9.31;89.40;95954.66;4186527;28;5781;-62
2022/04/07 10:27:08;;;;;;;;;;;;;;;9.53;88.17;95941.22;4185035;28;6399;-62
2022/04/07 10:29:21;;;;;;;;;;;;;;;9.48;88.99;95944.47;4186407;28;5742;-63
2022/04/07 10:31:25;;;;;;;;;;;;;;;9.59;88.40;95945.66;4185644;28;5695;-62
2022/04/07 10:33:41;;;;;;;;;;;;;;;9.57;88.50;95950.34;4189376;28;5801;-62
2022/04/07 10:35:49;;;;;;;;;;;;;;;9.61;88.04;95938.34;4202578;28;5746;-62
2022/04/07 10:37:51;;;;;;;;;;;;;;;9.48;88.89;95943.66;4200871;28;5717;-61
2022/04/07 10:39:53;;;;;;;;;;;;;;;9.42;87.82;95939.22;4202283;28;5710;-62
2022/04/07 10:41:54;;;;;;;;;;;;;;;9.51;88.43;95948.53;4202215;28;5694;-62
2022/04/07 10:44:08;;;;;;;;;;;;;;;9.57;88.40;95948.50;4201028;28;5697;-62
2022/04/07 10:46:18;;;;;;;;;;;;;;;9.64;88.35;95953.78;4200982;28;5126;-62
2022/04/07 10:48:27;;;;;;;;;;;;;;;9.54;88.26;95946.31;4202205;28;5743;-62
2022/04/07 10:50:29;;;;;;;;;;;;;;;9.19;89.58;95960.78;4202039;28;5827;-63
2022/04/07 10:52:31;;;;;;;;;;;;;;;9.51;88.41;95945.88;4201644;28;5706;-62
2022/04/07 10:54:33;;;;;;;;;;;;;;;9.44;88.46;95947.75;4202295;28;5698;-62
2022/04/07 10:56:35;;;;;;;;;;;;;;;9.27;90.65;95940.25;4202078;28;5705;-62
2022/04/07 10:58:40;;;;;;;;;;;;;;;9.32;89.32;95937.00;4200575;28;5814;-62
2022/04/07 11:00:42;;;;;;;;;;;;;;;9.27;89.49;95950.00;4201805;28;5686;-62
2022/04/07 11:02:44;;;;;;;;;;;;;;;9.42;88.15;95944.50;4202367;28;5757;-62
2022/04/07 11:05:10;;;;;;;;;;;;;;;9.47;87.16;95948.13;4200762;28;5761;-62
2022/04/07 11:07:14;;;;;;;;;;;;;;;9.47;87.57;95952.59;4201878;28;5682;-62
2022/04/07 11:09:17;;;;;;;;;;;;;;;9.33;88.44;95952.63;4201993;28;5783;-63
2022/04/07 11:11:54;;;;;;;;;;;;;;;9.56;86.95;95951.38;4200794;28;5690;-61
2022/04/07 11:13:58;;;;;;;;;;;;;;;9.58;86.56;95939.56;4184060;28;5823;-61
2022/04/07 11:16:08;;;;;;;;;;;;;;;9.63;86.30;95933.69;4185211;28;6420;-60
2022/04/07 11:18:30;;;;;;;;;;;;;;;9.61;85.83;95941.00;4185437;28;5832;-62
2022/04/07 11:20:32;;;;;;;;;;;;;;;9.66;84.34;95937.75;4185298;28;5706;-61
2022/04/07 11:22:51;;;;;;;;;;;;;;;9.61;84.32;95925.16;4181053;28;5909;-62
2022/04/07 11:24:54;;;;;;;;;;;;;;;9.64;84.56;95927.41;4185166;28;5730;-63
2022/04/07 11:26:55;;;;;;;;;;;;;;;9.57;84.61;95934.50;4185355;28;5734;-61
2022/04/07 11:29:07;;;;;;;;;;;;;;;9.61;84.01;95927.78;4184896;28;6523;-64
2022/04/07 11:31:09;;;;;;;;;;;;;;;9.70;84.47;95937.09;4184935;28;5908;-61
2022/04/07 11:33:26;;;;;;;;;;;;;;;9.63;84.87;95931.06;4186179;28;5703;-62
2022/04/07 11:35:28;;;;;;;;;;;;;;;9.65;85.05;95939.56;4201630;28;5797;-62
2022/04/07 11:37:38;;;;;;;;;;;;;;;9.64;85.20;95937.94;4201202;28;5725;-62
2022/04/07 11:39:48;;;;;;;;;;;;;;;9.67;84.14;95937.53;4201303;28;5694;-66
2022/04/07 11:41:50;;;;;;;;;;;;;;;9.59;82.94;95929.84;4201447;28;5701;-65
2022/04/07 11:43:52;;;;;;;;;;;;;;;9.49;83.93;95926.81;4201535;28;5701;-61
2022/04/07 11:45:55;;;;;;;;;;;;;;;9.41;85.03;95937.63;4201324;28;5786;-61
2022/04/07 11:48:17;;;;;;;;;;;;;;;9.23;87.60;95939.06;4201355;28;5693;-61
2022/04/07 11:50:19;;;;;;;;;;;;;;;9.39;86.13;95936.97;4201169;28;5817;-61
2022/04/07 11:52:27;;;;;;;;;;;;;;;9.28;87.75;95933.16;4199592;28;5698;-61
2022/04/07 11:54:29;;;;;;;;;;;;;;;9.41;88.45;95934.97;4201112;28;5745;-61
2022/04/07 11:56:32;;;;;;;;;;;;;;;9.24;89.53;95930.13;4199845;28;5128;-60
2022/04/07 11:58:33;;;;;;;;;;;;;;;9.40;88.54;95928.06;4200864;28;5681;-61
2022/04/07 12:00:38;;;;;;;;;;;;;;;9.55;87.14;95923.34;4201106;28;5797;-61
2022/04/07 12:02:40;;;;;;;;;;;;;;;9.26;89.17;95928.09;4183058;28;5743;-61
2022/04/07 12:04:42;;;;;;;;;;;;;;;9.48;88.25;95927.84;4201066;28;5686;-61
2022/04/07 12:06:45;;;;;;;;;;;;;;;9.37;88.21;95931.09;4199748;28;5773;-60
2022/04/07 12:08:51;;;;;;;;;;;;;;;9.43;87.58;95933.75;4200510;28;5773;-61
2022/04/07 12:10:53;;;;;;;;;;;;;;;9.62;86.32;95919.66;4199713;28;5803;-60
2022/04/07 12:12:55;;;;;;;;;;;;;;;9.62;85.78;95916.22;4200609;28;5770;-61
2022/04/07 12:14:57;;;;;;;;;;;;;;;9.50;86.63;95905.50;4201022;28;5688;-60
2022/04/07 12:16:59;;;;;;;;;;;;;;;9.54;86.70;95900.63;4200676;28;5773;-60
2022/04/07 12:19:04;;;;;;;;;;;;;;;9.61;87.20;95906.69;4200564;28;5729;-61
2022/04/07 12:21:07;;;;;;;;;;;;;;;9.32;88.46;95897.44;4198426;28;5692;-61
2022/04/07 12:23:10;;;;;;;;;;;;;;;9.63;87.62;95894.91;4182108;28;5794;-61
2022/04/07 12:25:12;;;;;;;;;;;;;;;9.71;87.71;95893.84;4183013;28;5737;-61
2022/04/07 12:27:26;;;;;;;;;;;;;;;9.72;87.71;95882.28;4184101;28;5711;-62
2022/04/07 12:29:31;;;;;;;;;;;;;;;9.68;86.47;95898.75;4182485;28;5853;-62
2022/04/07 12:31:33;;;;;;;;;;;;;;;9.53;87.54;95906.94;4183144;28;5798;-61
2022/04/07 12:33:42;;;;;;;;;;;;;;;9.50;87.75;95915.25;4188496;28;6264;-61
2022/04/07 12:35:46;;;;;;;;;;;;;;;9.70;87.03;95925.75;4200656;28;5773;-61
2022/04/07 12:37:47;;;;;;;;;;;;;;;9.65;86.39;95910.53;4200483;28;5773;-60
2022/04/07 12:39:49;;;;;;;;;;;;;;;9.68;86.09;95901.38;4200656;28;5758;-61
2022/04/07 12:41:51;;;;;;;;;;;;;;;9.51;87.09;95907.16;4200716;28;5689;-61
2022/04/07 12:43:54;;;;;;;;;;;;;;;9.66;85.88;95901.59;4200526;28;5691;-61
2022/04/07 12:45:59;;;;;;;;;;;;;;;9.63;85.87;95908.13;4200366;28;5686;-61
2022/04/07 12:48:01;;;;;;;;;;;;;;;9.57;87.70;95895.75;4200565;28;5063;-61
2022/04/07 12:50:27;;;;;;;;;;;;;;;9.55;87.59;95897.78;4200638;28;5756;-61
2022/04/07 12:52:43;;;;;;;;;;;;;;;9.67;86.87;95903.22;4199989;28;5781;-61
2022/04/07 12:55:19;;;;;;;;;;;;;;;9.65;86.99;95894.72;4199179;28;6414;-61
2022/04/07 12:57:21;;;;;;;;;;;;;;;9.63;86.79;95897.56;4177490;28;5816;-61
2022/04/07 12:59:23;;;;;;;;;;;;;;;9.43;88.11;95893.38;4200288;28;5781;-61
2022/04/07 13:01:32;;;;;;;;;;;;;;;9.38;88.70;95891.31;4200407;28;5717;-61
2022/04/07 13:03:51;;;;;;;;;;;;;;;9.47;88.08;95895.38;4200445;28;6392;-61
2022/04/07 13:05:53;;;;;;;;;;;;;;;9.61;87.11;95885.56;4200454;28;5710;-62
2022/04/07 13:07:56;;;;;;;;;;;;;;;9.56;87.57;95883.56;4199324;28;5705;-62
2022/04/07 13:09:58;;;;;;;;;;;;;;;9.55;87.92;95891.69;4200206;28;5760;-62
2022/04/07 13:12:01;;;;;;;;;;;;;;;9.65;87.11;95892.06;4199943;28;5701;-61
2022/04/07 13:14:08;;;;;;;;;;;;;;;9.74;86.83;95895.25;4200088;28;5880;-62
2022/04/07 13:16:10;;;;;;;;;;;;;;;9.70;86.94;95889.59;4200210;28;5713;-61
2022/04/07 13:18:12;;;;;;;;;;;;;;;9.68;86.25;95889.00;4200179;28;5764;-61
2022/04/07 13:20:15;;;;;;;;;;;;;;;9.66;86.99;95892.88;4199932;28;5673;-62
2022/04/07 13:22:16;;;;;;;;;;;;;;;9.63;87.45;95894.13;4187878;28;5731;-62
2022/04/07 13:24:21;;;;;;;;;;;;;;;9.69;87.76;95901.19;4183303;28;5716;-61
2022/04/07 13:26:26;;;;;;;;;;;;;;;9.55;88.52;95887.22;4183630;28;5706;-62
2022/04/07 13:28:28;;;;;;;;;;;;;;;9.65;88.02;95893.91;4183308;28;5794;-62
2022/04/07 13:30:29;;;;;;;;;;;;;;;9.77;87.05;95898.31;4182121;28;5817;-61
2022/04/07 13:32:31;;;;;;;;;;;;;;;9.79;87.02;95893.63;4183006;28;6457;-61
2022/04/07 13:34:32;;;;;;;;;;;;;;;9.73;87.27;95886.53;4194708;28;5713;-62
2022/04/07 13:36:34;;;;;;;;;;;;;;;9.61;88.15;95896.13;4200119;28;5689;-63
2022/04/07 13:38:36;;;;;;;;;;;;;;;9.60;88.62;95889.22;4198268;28;5784;-62
2022/04/07 13:40:37;;;;;;;;;;;;;;;9.62;88.69;95889.81;4198523;28;5969;-61
2022/04/07 13:42:39;;;;;;;;;;;;;;;9.65;88.00;95892.06;4199083;28;5796;-61
2022/04/07 13:44:41;;;;;;;;;;;;;;;9.52;88.16;95894.75;4203313;28;5697;-61
2022/04/07 13:46:43;;;;;;;;;;;;;;;9.49;89.05;95889.88;4203431;28;5699;-61
2022/04/07 13:48:47;;;;;;;;;;;;;;;9.40;90.15;95897.22;4203047;28;5769;-61
2022/04/07 13:50:49;;;;;;;;;;;;;;;9.38;89.71;95886.06;4203192;28;5789;-62
2022/04/07 13:52:50;;;;;;;;;;;;;;;9.39;89.79;95892.94;4203070;28;5690;-61
2022/04/07 13:54:52;;;;;;;;;;;;;;;9.29;90.47;95885.50;4203257;28;5714;-63
2022/04/07 13:56:54;;;;;;;;;;;;;;;9.28;90.60;95875.13;4203401;28;5690;-62
2022/04/07 13:58:56;;;;;;;;;;;;;;;9.29;90.15;95871.50;4202951;28;5713;-62
2022/04/07 14:00:57;;;;;;;;;;;;;;;9.26;90.30;95871.88;4201866;28;5820;-62
2022/04/07 14:03:00;;;;;;;;;;;;;;;9.28;90.34;95868.03;4202843;28;5887;-62
2022/04/07 14:05:02;;;;;;;;;;;;;;;9.28;90.49;95870.66;4203077;28;5714;-62
2022/04/07 14:07:04;;;;;;;;;;;;;;;9.18;90.89;95870.31;4202878;28;5694;-61
2022/04/07 14:09:12;;;;;;;;;;;;;;;9.20;91.14;95870.09;4202625;28;5703;-62
2022/04/07 14:11:16;;;;;;;;;;;;;;;9.16;91.30;95871.50;4202703;28;5701;-62
2022/04/07 14:13:20;;;;;;;;;;;;;;;9.09;91.12;95876.81;4202377;28;5688;-61
2022/04/07 14:15:23;;;;;;;;;;;;;;;9.04;91.49;95852.88;4202763;28;5791;-61
2022/04/07 14:17:24;;;;;;;;;;;;;;;9.02;91.52;95857.53;4202519;28;5708;-62
2022/04/07 14:19:26;;;;;;;;;;;;;;;9.03;91.45;95857.34;4202883;28;5693;-62
2022/04/07 14:21:29;;;;;;;;;;;;;;;9.04;91.50;95855.50;4197203;28;5822;-62
2022/04/07 14:23:31;;;;;;;;;;;;;;;9.07;91.58;95852.47;4185782;28;5715;-60
2022/04/07 14:25:33;;;;;;;;;;;;;;;9.13;92.21;95856.91;4184818;28;5726;-62
2022/04/07 14:27:35;;;;;;;;;;;;;;;9.19;91.08;95845.56;4186154;28;5735;-61
2022/04/07 14:29:36;;;;;;;;;;;;;;;9.24;90.65;95852.81;4184635;28;5703;-61
2022/04/07 14:31:38;;;;;;;;;;;;;;;9.28;90.61;95836.38;4184264;28;5730;-61
2022/04/07 14:33:44;;;;;;;;;;;;;;;9.29;90.10;95838.03;4191036;28;5717;-61
2022/04/07 14:35:47;;;;;;;;;;;;;;;9.30;90.46;95836.19;4202596;28;5706;-61
2022/04/07 14:37:49;;;;;;;;;;;;;;;9.36;89.53;95835.34;4202404;28;5788;-65
2022/04/07 14:39:51;;;;;;;;;;;;;;;9.37;90.11;95825.59;4202214;28;5697;-61
2022/04/07 14:41:54;;;;;;;;;;;;;;;9.40;90.07;95822.53;4201256;28;5706;-61
2022/04/07 14:43:56;;;;;;;;;;;;;;;9.46;89.53;95821.72;4200824;28;5701;-61
2022/04/07 14:45:59;;;;;;;;;;;;;;;9.48;90.04;95832.84;4201262;28;6562;-61
2022/04/07 14:48:00;;;;;;;;;;;;;;;9.45;89.15;95828.81;4202237;28;5690;-61
2022/04/07 14:50:04;;;;;;;;;;;;;;;9.25;88.99;95828.88;4198854;28;5730;-61
2022/04/07 14:52:06;;;;;;;;;;;;;;;9.23;88.13;95824.84;4194953;28;5718;-61
2022/04/07 14:54:09;;;;;;;;;;;;;;;9.37;87.98;95833.50;4194619;28;5821;-61
2022/04/07 14:56:11;;;;;;;;;;;;;;;9.43;87.56;95830.84;4195229;28;5907;-61
2022/04/07 14:58:15;;;;;;;;;;;;;;;9.41;87.29;95821.53;4197691;28;5792;-61
2022/04/07 15:00:18;;;;;;;;;;;;;;;9.42;86.47;95828.44;4197867;28;5127;-61
2022/04/07 15:02:19;;;;;;;;;;;;;;;9.47;85.55;95832.06;4197389;28;5811;-62
2022/04/07 15:04:21;;;;;;;;;;;;;;;9.37;85.40;95831.69;4195709;28;5917;-62
2022/04/07 15:06:23;;;;;;;;;;;;;;;9.34;85.38;95829.47;4199970;28;6661;-61
2022/04/07 15:08:25;;;;;;;;;;;;;;;9.38;85.70;95835.13;4198291;28;5828;-61
2022/04/07 15:10:27;;;;;;;;;;;;;;;9.40;84.87;95833.09;4194208;28;5775;-61
2022/04/07 15:12:29;;;;;;;;;;;;;;;9.29;85.71;95827.47;4198128;28;5840;-62
2022/04/07 15:14:38;;;;;;;;;;;;;;;9.32;86.78;95840.22;4198852;28;5828;-61
2022/04/07 15:16:40;;;;;;;;;;;;;;;9.10;90.43;95846.78;4193316;28;6009;-61
2022/04/07 15:18:42;;;;;;;;;;;;;;;9.29;89.81;95843.28;4193007;28;7233;-62
2022/04/07 15:20:45;;;;;;;;;;;;;;;9.40;89.28;95846.28;4196731;28;5824;-62
2022/04/07 15:22:47;;;;;;;;;;;;;;;9.42;90.04;95854.81;4195983;28;6616;-61
2022/04/07 15:24:49;;;;;;;;;;;;;;;9.39;90.45;95852.56;4195529;28;5824;-61
2022/04/07 15:26:51;;;;;;;;;;;;;;;9.32;90.49;95848.16;4195398;28;5835;-61
2022/04/07 15:28:52;;;;;;;;;;;;;;;9.34;90.41;95847.94;4195099;28;5925;-61
2022/04/07 15:30:54;;;;;;;;;;;;;;;9.26;91.36;95846.31;4194239;28;5812;-61
2022/04/07 15:32:56;;;;;;;;;;;;;;;9.22;91.52;95844.31;4195951;28;5843;-62
2022/04/07 15:34:58;;;;;;;;;;;;;;;9.24;91.56;95837.00;4196027;28;5796;-61
2022/04/07 15:37:00;;;;;;;;;;;;;;;9.25;91.84;95844.72;4194531;28;5851;-61
2022/04/07 15:39:01;;;;;;;;;;;;;;;9.23;91.53;95840.66;4196786;28;5853;-61
2022/04/07 15:41:08;;;;;;;;;;;;;;;9.22;91.65;95831.94;4196071;28;5787;-61
2022/04/07 15:43:15;;;;;;;;;;;;;;;9.13;91.89;95835.81;4188846;28;7010;-62
2022/04/07 15:45:17;;;;;;;;;;;;;;;9.11;91.79;95826.50;4194467;28;5832;-62
2022/04/07 15:47:19;;;;;;;;;;;;;;;9.07;92.47;95826.13;4197276;28;7748;-62
2022/04/07 15:49:21;;;;;;;;;;;;;;;9.01;92.88;95835.66;4195139;28;5843;-62
2022/04/07 15:51:23;;;;;;;;;;;;;;;8.93;92.95;95837.69;4196468;28;5815;-62
2022/04/07 15:53:25;;;;;;;;;;;;;;;8.89;93.57;95832.03;4197617;28;5800;-62
2022/04/07 15:55:27;;;;;;;;;;;;;;;8.81;94.82;95841.97;4197731;28;5784;-62
2022/04/07 15:57:29;;;;;;;;;;;;;;;8.96;93.54;95834.66;4192188;28;5792;-62
2022/04/07 15:59:30;;;;;;;;;;;;;;;9.01;93.28;95834.84;4198128;28;5855;-63
2022/04/07 16:01:32;;;;;;;;;;;;;;;9.03;93.36;95830.16;4197631;28;6604;-62
2022/04/07 16:03:34;;;;;;;;;;;;;;;9.05;93.70;95838.66;4198862;28;5788;-62
2022/04/07 16:05:36;;;;;;;;;;;;;;;9.08;93.35;95840.91;4199836;28;5800;-62
2022/04/07 16:07:37;;;;;;;;;;;;;;;9.10;93.59;95844.16;4195464;28;5844;-62
2022/04/07 16:09:39;;;;;;;;;;;;;;;9.08;94.50;95838.28;4198003;28;5795;-62
2022/04/07 16:11:41;;;;;;;;;;;;;;;9.05;95.73;95843.94;4196291;28;5879;-63
2022/04/07 16:13:43;;;;;;;;;;;;;;;9.09;94.88;95841.72;4196440;28;5805;-62
2022/04/07 16:16:04;;;;;;;;;;;;;;;9.26;93.03;95840.25;4196152;28;6628;-62
2022/04/07 16:18:07;;;;;;;;;;;;;;;9.30;93.35;95842.28;4198175;28;5800;-61
2022/04/07 16:20:11;;;;;;;;;;;;;;;9.29;93.19;95839.84;4197356;28;5792;-61
2022/04/07 16:22:12;;;;;;;;;;;;;;;9.24;93.38;95845.72;4195570;28;5800;-62
2022/04/07 16:24:15;;;;;;;;;;;;;;;9.25;93.36;95839.44;4195127;28;5815;-63
2022/04/07 16:26:17;;;;;;;;;;;;;;;9.21;93.61;95847.97;4196048;28;6494;-61
2022/04/07 16:28:18;;;;;;;;;;;;;;;9.21;93.48;95846.16;4197180;28;5807;-61
2022/04/07 16:30:21;;;;;;;;;;;;;;;9.23;93.19;95854.66;4197983;28;5792;-61
2022/04/07 16:32:22;;;;;;;;;;;;;;;9.25;92.85;95844.72;4197611;28;5808;-64
2022/04/07 16:34:27;;;;;;;;;;;;;;;9.20;93.38;95849.81;4197638;28;5785;-67